createdAt,value
2023-02-27T00:01:00.444Z,62.00
2023-02-27T00:03:27.849Z,63.09
2023-02-27T00:05:56.266Z,62.39
2023-02-27T00:08:23.319Z,62.82
2023-02-27T00:10:50.612Z,63.52
2023-02-27T00:13:17.853Z,63.44
2023-02-27T00:15:49.527Z,64.11
2023-02-27T00:18:16.683Z,64.14
2023-02-27T00:20:43.519Z,63.43
2023-02-27T00:23:13.010Z,64.30
2023-02-27T00:25:39.922Z,64.53
2023-02-27T00:28:07.052Z,64.52
2023-02-27T00:30:34.429Z,64.17
2023-02-27T00:33:01.208Z,64.82
2023-02-27T00:35:28.556Z,64.68
2023-02-27T00:37:55.514Z,65.19
2023-02-27T00:40:25.370Z,65.21
2023-02-27T00:42:53.144Z,65.22
2023-02-27T00:45:20.617Z,65.93
2023-02-27T00:47:48.013Z,65.46
2023-02-27T00:50:15.784Z,65.86
2023-02-27T00:52:42.701Z,65.96
2023-02-27T00:55:10.736Z,66.26
2023-02-27T00:57:38.799Z,66.54
2023-02-27T01:00:09.154Z,67.24
2023-02-27T01:02:36.442Z,67.67
2023-02-27T01:05:03.632Z,66.92
2023-02-27T01:07:30.886Z,67.17
2023-02-27T01:09:58.545Z,66.81
2023-02-27T01:12:25.340Z,66.92
2023-02-27T01:14:52.154Z,65.87
2023-02-27T01:17:18.876Z,66.96
2023-02-27T01:19:50.403Z,67.26
2023-02-27T01:22:17.717Z,67.42
2023-02-27T01:24:44.522Z,67.09
2023-02-27T01:27:13.379Z,66.71
2023-02-27T01:29:40.218Z,67.07
2023-02-27T01:32:07.051Z,66.83
2023-02-27T01:34:34.440Z,67.97
2023-02-27T01:37:07.458Z,67.35
2023-02-27T01:39:34.754Z,67.74
2023-02-27T01:42:03.030Z,67.37
2023-02-27T01:44:34.077Z,67.90
2023-02-27T01:47:02.756Z,67.82
2023-02-27T01:49:33.562Z,68.27
2023-02-27T01:52:08.254Z,68.08
2023-02-27T01:54:41.760Z,67.32
2023-02-27T01:57:09.723Z,68.28
2023-02-27T01:59:40.277Z,67.87
2023-02-27T02:02:17.209Z,67.39
2023-02-27T02:04:44.303Z,68.37
2023-02-27T02:07:18.152Z,68.51
2023-02-27T02:09:51.802Z,67.57
2023-02-27T02:12:24.521Z,68.07
2023-02-27T02:14:52.195Z,67.57
2023-02-27T02:17:35.521Z,67.85
2023-02-27T02:20:53.470Z,68.56
2023-02-27T02:23:38.580Z,68.32
2023-02-27T02:26:21.628Z,68.56
2023-02-27T02:29:28.947Z,68.27
2023-02-27T02:32:32.638Z,68.05
2023-02-27T02:35:17.601Z,67.97
2023-02-27T02:38:18.032Z,68.40
2023-02-27T02:41:02.296Z,68.44
2023-02-27T02:43:58.850Z,68.45
2023-02-27T02:46:39.528Z,68.93
2023-02-27T02:49:37.502Z,68.80
2023-02-27T02:52:27.159Z,68.45
2023-02-27T02:55:25.620Z,68.26
2023-02-27T02:58:22.766Z,68.86
2023-02-27T03:01:15.471Z,69.46
2023-02-27T03:03:48.782Z,69.60
2023-02-27T03:06:29.592Z,69.25
2023-02-27T03:09:04.580Z,69.58
2023-02-27T03:11:36.551Z,69.53
2023-02-27T03:14:24.060Z,70.12
2023-02-27T03:16:54.748Z,70.35
2023-02-27T03:19:27.540Z,70.75
2023-02-27T03:22:13.701Z,71.10
2023-02-27T03:24:47.319Z,71.14
2023-02-27T03:27:16.815Z,71.22
2023-02-27T03:30:20.850Z,71.82
2023-02-27T03:33:12.984Z,72.46
2023-02-27T03:35:54.114Z,73.10
2023-02-27T03:38:42.030Z,73.45
2023-02-27T03:41:23.632Z,73.78
2023-02-27T03:44:45.613Z,74.17
2023-02-27T03:47:12.587Z,73.82
2023-02-27T03:49:39.442Z,73.96
2023-02-27T03:52:07.904Z,73.89
2023-02-27T03:54:47.953Z,74.25
2023-02-27T03:57:15.311Z,74.13
2023-02-27T03:59:42.447Z,74.33
2023-02-27T04:02:09.657Z,74.16
2023-02-27T04:04:37.625Z,74.70
2023-02-27T04:07:25.477Z,74.92
2023-02-27T04:10:13.235Z,74.99
2023-02-27T04:12:55.118Z,74.89
2023-02-27T04:16:08.657Z,75.23
2023-02-27T04:19:15.100Z,75.33
2023-02-27T04:22:05.821Z,75.19
2023-02-27T04:24:55.494Z,75.29
2023-02-27T04:27:35.218Z,75.54
2023-02-27T04:30:43.506Z,75.53
2023-02-27T04:33:42.804Z,75.33
2023-02-27T04:36:19.371Z,75.50
2023-02-27T04:38:55.370Z,75.36
2023-02-27T04:41:47.233Z,75.81
2023-02-27T04:44:16.322Z,75.42
2023-02-27T04:46:44.525Z,75.91
2023-02-27T04:49:26.501Z,76.02
2023-02-27T04:52:02.619Z,75.47
2023-02-27T04:54:37.805Z,75.77
2023-02-27T04:57:11.307Z,76.16
2023-02-27T04:59:44.197Z,75.24
2023-02-27T05:02:33.543Z,76.30
2023-02-27T05:05:06.134Z,76.50
2023-02-27T05:07:45.455Z,76.36
2023-02-27T05:10:49.754Z,76.13
2023-02-27T05:13:22.487Z,76.17
2023-02-27T05:15:57.020Z,76.23
2023-02-27T05:18:24.750Z,76.87
2023-02-27T05:21:36.242Z,77.15
2023-02-27T05:24:21.227Z,76.89
2023-02-27T05:27:18.936Z,76.51
2023-02-27T05:29:50.272Z,76.67
2023-02-27T05:32:26.482Z,76.72
2023-02-27T05:34:59.623Z,76.45
2023-02-27T05:37:44.315Z,76.83
2023-02-27T05:40:17.731Z,76.27
2023-02-27T05:42:53.161Z,76.37
2023-02-27T05:45:25.768Z,76.36
2023-02-27T05:48:04.324Z,76.85
2023-02-27T05:50:34.719Z,76.76
2023-02-27T05:53:06.400Z,77.11
2023-02-27T05:55:44.325Z,77.63
2023-02-27T05:59:13.209Z,77.41
2023-02-27T06:01:40.532Z,77.93
2023-02-27T06:04:07.290Z,77.61
2023-02-27T06:06:35.730Z,77.47
2023-02-27T06:09:02.894Z,77.61
2023-02-27T06:11:29.690Z,77.66
2023-02-27T06:13:56.877Z,77.06
2023-02-27T06:16:28.394Z,77.77
2023-02-27T06:18:55.527Z,77.80
2023-02-27T06:21:22.312Z,77.28
2023-02-27T06:23:49.467Z,77.21
2023-02-27T06:26:16.253Z,77.22
2023-02-27T06:28:43.101Z,77.39
2023-02-27T06:31:09.869Z,77.37
2023-02-27T06:33:36.760Z,77.71
2023-02-27T06:36:04.098Z,77.35
2023-02-27T06:38:31.518Z,76.85
2023-02-27T06:40:58.920Z,77.47
2023-02-27T06:43:26.006Z,77.00
2023-02-27T06:45:56.348Z,77.31
2023-02-27T06:48:23.183Z,77.04
2023-02-27T06:50:54.834Z,76.88
2023-02-27T06:53:22.480Z,76.77
2023-02-27T06:55:49.543Z,75.91
2023-02-27T06:58:17.488Z,75.71
2023-02-27T07:00:44.282Z,75.54
2023-02-27T07:03:12.282Z,74.52
2023-02-27T07:05:40.097Z,74.27
2023-02-27T07:08:06.856Z,74.45
2023-02-27T07:10:33.571Z,73.29
2023-02-27T07:13:00.277Z,73.12
2023-02-27T07:15:27.081Z,71.99
2023-02-27T07:17:54.514Z,71.30
2023-02-27T07:20:21.278Z,70.79
2023-02-27T07:22:48.022Z,71.15
2023-02-27T07:25:14.947Z,70.40
2023-02-27T07:27:44.259Z,71.06
2023-02-27T07:30:12.228Z,71.30
2023-02-27T07:32:39.006Z,70.50
2023-02-27T07:35:06.840Z,69.75
2023-02-27T07:37:33.698Z,70.50
2023-02-27T07:40:00.435Z,71.17
2023-02-27T07:42:27.198Z,71.75
2023-02-27T07:44:54.672Z,72.32
2023-02-27T07:47:21.609Z,72.16
2023-02-27T07:49:48.347Z,71.08
2023-02-27T07:52:15.086Z,71.45
2023-02-27T07:54:41.986Z,71.03
2023-02-27T07:57:08.955Z,71.74
2023-02-27T07:59:35.741Z,70.34
2023-02-27T08:02:02.544Z,68.86
2023-02-27T08:04:29.331Z,69.97
2023-02-27T08:06:56.115Z,69.25
2023-02-27T08:09:23.739Z,70.03
2023-02-27T08:11:50.715Z,69.81
2023-02-27T08:14:17.483Z,70.14
2023-02-27T08:16:44.315Z,69.37
2023-02-27T08:19:13.938Z,68.87
2023-02-27T08:21:40.835Z,69.18
2023-02-27T08:24:07.642Z,70.17
2023-02-27T08:26:34.497Z,69.73
2023-02-27T08:29:01.738Z,70.85
2023-02-27T08:31:28.528Z,69.64
2023-02-27T08:34:04.444Z,68.56
2023-02-27T08:36:34.617Z,69.70
2023-02-27T08:39:01.314Z,69.95
2023-02-27T08:41:28.080Z,70.25
2023-02-27T08:43:54.791Z,69.70
2023-02-27T08:46:21.558Z,68.12
2023-02-27T08:48:48.257Z,68.99
2023-02-27T08:51:15.045Z,69.01
2023-02-27T08:53:41.719Z,68.87
2023-02-27T08:56:08.904Z,68.54
2023-02-27T08:58:36.014Z,68.26
2023-02-27T09:01:03.410Z,68.13
2023-02-27T09:03:31.372Z,67.93
2023-02-27T09:05:58.284Z,67.94
2023-02-27T09:08:25.168Z,67.94
2023-02-27T09:10:55.989Z,68.16
2023-02-27T09:13:22.824Z,67.74
2023-02-27T09:15:49.578Z,67.02
2023-02-27T09:18:16.296Z,67.23
2023-02-27T09:20:43.100Z,67.81
2023-02-27T09:23:10.582Z,67.29
2023-02-27T09:25:37.567Z,67.25
2023-02-27T09:28:04.495Z,66.17
2023-02-27T09:30:33.377Z,66.23
2023-02-27T09:33:00.386Z,65.85
2023-02-27T09:35:27.323Z,66.51
2023-02-27T09:37:54.171Z,65.27
2023-02-27T09:40:30.032Z,65.31
2023-02-27T09:43:10.160Z,65.06
2023-02-27T09:45:39.591Z,63.51
2023-02-27T09:48:30.698Z,63.04
2023-02-27T09:50:59.154Z,62.75
2023-02-27T09:53:31.912Z,63.15
2023-02-27T09:56:08.193Z,63.49
2023-02-27T09:59:19.665Z,63.73
2023-02-27T10:01:52.840Z,63.71
2023-02-27T10:04:54.101Z,62.51
2023-02-27T10:07:42.856Z,62.91
2023-02-27T10:10:36.736Z,62.68
2023-02-27T10:13:43.691Z,62.11
2023-02-27T10:16:14.533Z,62.60
2023-02-27T10:19:00.336Z,62.07
2023-02-27T10:21:41.383Z,61.81
2023-02-27T10:24:29.342Z,61.19
2023-02-27T10:26:59.937Z,60.89
2023-02-27T10:29:37.089Z,60.15
2023-02-27T10:32:11.977Z,60.28
2023-02-27T10:34:42.203Z,59.89
2023-02-27T10:37:14.970Z,60.88
2023-02-27T10:39:53.194Z,61.24
2023-02-27T10:42:20.795Z,60.95
2023-02-27T10:44:53.547Z,60.49
2023-02-27T10:47:26.372Z,59.97
2023-02-27T10:49:55.238Z,59.19
2023-02-27T10:52:22.381Z,58.67
2023-02-27T10:54:49.179Z,57.65
2023-02-27T10:57:40.746Z,57.91
2023-02-27T11:00:31.084Z,58.19
2023-02-27T11:02:58.139Z,58.21
2023-02-27T11:05:36.323Z,58.58
2023-02-27T11:08:30.270Z,58.97
2023-02-27T11:11:06.151Z,58.96
2023-02-27T11:13:42.212Z,59.32
2023-02-27T11:16:18.001Z,58.97
2023-02-27T11:18:46.838Z,58.37
2023-02-27T11:21:24.898Z,58.44
2023-02-27T11:23:56.542Z,58.73
2023-02-27T11:26:36.865Z,58.18
2023-02-27T11:29:15.556Z,58.30
2023-02-27T11:32:12.637Z,58.45
2023-02-27T11:34:47.718Z,58.97
2023-02-27T11:37:35.793Z,58.47
2023-02-27T11:40:14.924Z,58.86
2023-02-27T11:42:50.068Z,58.04
2023-02-27T11:46:04.844Z,58.54
2023-02-27T11:48:40.629Z,58.12
2023-02-27T11:51:26.234Z,58.22
2023-02-27T11:54:21.120Z,56.93
2023-02-27T11:56:54.971Z,56.24
2023-02-27T11:59:40.482Z,57.05
2023-02-27T12:02:55.227Z,56.78
2023-02-27T12:05:51.093Z,56.26
2023-02-27T12:08:57.722Z,55.89
2023-02-27T12:11:38.972Z,55.75
2023-02-27T12:14:08.721Z,55.12
2023-02-27T12:16:45.520Z,55.70
2023-02-27T12:19:22.924Z,55.32
2023-02-27T12:22:00.290Z,55.39
2023-02-27T12:24:42.207Z,55.06
2023-02-27T12:27:31.952Z,55.17
2023-02-27T12:30:18.649Z,53.68
2023-02-27T12:32:55.019Z,54.24
2023-02-27T12:35:29.179Z,53.60
2023-02-27T12:37:57.307Z,53.74
2023-02-27T12:40:37.613Z,55.38
2023-02-27T12:43:16.107Z,54.86
2023-02-27T12:45:55.466Z,53.41
2023-02-27T12:48:51.611Z,56.20
2023-02-27T12:51:43.456Z,54.84
2023-02-27T12:54:36.237Z,53.83
2023-02-27T12:57:57.913Z,52.42
2023-02-27T13:00:40.592Z,52.61
2023-02-27T13:03:25.263Z,52.03
2023-02-27T13:06:07.768Z,52.04
2023-02-27T13:09:16.972Z,53.49
2023-02-27T13:12:27.930Z,53.07
2023-02-27T13:15:24.050Z,53.43
2023-02-27T13:18:00.011Z,52.75
2023-02-27T13:20:39.427Z,50.83
2023-02-27T13:23:48.549Z,51.61
2023-02-27T13:26:35.590Z,52.42
2023-02-27T13:29:04.517Z,52.10
2023-02-27T13:32:01.664Z,52.05
2023-02-27T13:34:42.574Z,52.21
2023-02-27T13:37:09.797Z,52.61
2023-02-27T13:39:50.139Z,52.40
2023-02-27T13:42:26.229Z,52.53
2023-02-27T13:45:06.351Z,52.18
2023-02-27T13:47:47.409Z,51.65
2023-02-27T13:50:46.476Z,51.22
2023-02-27T13:53:18.683Z,52.36
2023-02-27T13:55:45.963Z,52.06
2023-02-27T13:58:18.737Z,52.62
2023-02-27T14:00:56.856Z,52.32
2023-02-27T14:03:27.997Z,53.24
2023-02-27T14:06:01.222Z,52.23
2023-02-27T14:08:34.127Z,51.28
2023-02-27T14:11:16.777Z,51.49
2023-02-27T14:13:46.656Z,52.41
2023-02-27T14:16:39.108Z,52.44
2023-02-27T14:19:24.136Z,52.54
2023-02-27T14:22:03.042Z,53.21
2023-02-27T14:25:01.064Z,53.08
2023-02-27T14:27:44.404Z,52.76
2023-02-27T14:30:45.803Z,52.12
2023-02-27T14:33:39.561Z,52.42
2023-02-27T14:36:15.830Z,52.35
2023-02-27T14:38:43.128Z,52.36
2023-02-27T14:41:31.183Z,52.32
2023-02-27T14:43:59.676Z,52.26
2023-02-27T14:46:36.172Z,52.03
2023-02-27T14:49:16.728Z,50.97
2023-02-27T14:51:44.313Z,52.84
2023-02-27T14:54:20.713Z,51.49
2023-02-27T14:56:57.488Z,50.77
2023-02-27T14:59:46.505Z,51.08
2023-02-27T15:02:23.610Z,51.83
2023-02-27T15:05:15.848Z,54.26
2023-02-27T15:07:47.516Z,53.38
2023-02-27T15:10:31.543Z,53.14
2023-02-27T15:13:00.406Z,53.77
2023-02-27T15:15:27.863Z,53.00
2023-02-27T15:17:55.943Z,53.49
2023-02-27T15:20:30.265Z,53.33
2023-02-27T15:23:02.058Z,52.69
2023-02-27T15:25:37.806Z,53.63
2023-02-27T15:28:22.208Z,53.43
2023-02-27T15:30:51.100Z,54.21
2023-02-27T15:33:18.838Z,54.63
2023-02-27T15:35:46.466Z,52.79
2023-02-27T15:38:36.048Z,52.90
2023-02-27T15:41:04.620Z,52.75
2023-02-27T15:43:31.871Z,52.85
2023-02-27T15:45:59.225Z,52.71
2023-02-27T15:48:26.816Z,53.95
2023-02-27T15:50:58.042Z,53.44
2023-02-27T15:53:29.015Z,54.49
2023-02-27T15:55:59.944Z,53.22
2023-02-27T15:58:34.302Z,52.64
2023-02-27T16:01:18.840Z,52.79
2023-02-27T16:03:49.714Z,52.85
2023-02-27T16:06:23.419Z,52.54
2023-02-27T16:09:34.775Z,52.62
2023-02-27T16:12:24.475Z,52.67
2023-02-27T16:15:13.320Z,52.75
2023-02-27T16:17:58.392Z,53.04
2023-02-27T16:20:33.457Z,53.34
2023-02-27T16:23:31.851Z,53.18
2023-02-27T16:26:32.545Z,53.83
2023-02-27T16:29:05.257Z,53.68
2023-02-27T16:31:35.308Z,53.64
2023-02-27T16:34:46.713Z,54.44
2023-02-27T16:37:37.999Z,55.14
2023-02-27T16:40:25.513Z,54.07
2023-02-27T16:42:53.081Z,54.83
2023-02-27T16:45:29.126Z,54.06
2023-02-27T16:47:59.415Z,54.23
2023-02-27T16:50:32.684Z,53.74
2023-02-27T16:52:59.906Z,54.89
2023-02-27T16:55:27.392Z,53.79
2023-02-27T16:57:54.239Z,53.65
2023-02-27T17:00:22.983Z,54.42
2023-02-27T17:02:50.176Z,53.65
2023-02-27T17:05:18.273Z,54.26
2023-02-27T17:07:45.412Z,53.11
2023-02-27T17:10:22.080Z,54.17
2023-02-27T17:12:48.974Z,54.34
2023-02-27T17:15:16.202Z,55.12
2023-02-27T17:17:43.546Z,54.81
2023-02-27T17:20:13.159Z,54.57
2023-02-27T17:22:43.192Z,55.25
2023-02-27T17:25:11.761Z,55.09
2023-02-27T17:27:38.657Z,55.32
2023-02-27T17:30:07.070Z,55.09
2023-02-27T17:32:35.082Z,55.22
2023-02-27T17:35:02.134Z,55.85
2023-02-27T17:37:29.000Z,56.49
2023-02-27T17:39:56.115Z,56.42
2023-02-27T17:42:25.661Z,56.37
2023-02-27T17:44:52.937Z,56.55
2023-02-27T17:47:22.131Z,57.05
2023-02-27T17:49:48.998Z,57.42
2023-02-27T17:52:15.903Z,57.80
2023-02-27T17:54:42.625Z,57.90
2023-02-27T17:57:11.374Z,57.59
2023-02-27T17:59:38.189Z,57.51
2023-02-27T18:02:05.000Z,57.65
2023-02-27T18:04:32.086Z,57.53
2023-02-27T18:06:59.037Z,57.51
2023-02-27T18:09:25.953Z,57.64
2023-02-27T18:11:53.511Z,57.23
2023-02-27T18:14:20.869Z,57.60
2023-02-27T18:16:47.742Z,57.52
2023-02-27T18:19:14.550Z,56.96
2023-02-27T18:21:42.758Z,57.85
2023-02-27T18:24:09.691Z,57.37
2023-02-27T18:26:37.067Z,57.70
2023-02-27T18:29:08.198Z,58.13
2023-02-27T18:31:40.995Z,58.08
2023-02-27T18:34:07.818Z,58.13
2023-02-27T18:36:36.320Z,58.51
2023-02-27T18:39:05.061Z,57.98
2023-02-27T18:41:32.187Z,57.95
2023-02-27T18:43:59.176Z,58.86
2023-02-27T18:46:27.098Z,57.89
2023-02-27T18:48:54.188Z,57.72
2023-02-27T18:51:21.087Z,57.54
2023-02-27T18:53:49.614Z,57.66
2023-02-27T18:56:22.633Z,57.44
2023-02-27T18:58:50.400Z,57.13
2023-02-27T19:01:27.678Z,56.82
2023-02-27T19:04:00.328Z,57.08
2023-02-27T19:06:28.420Z,57.40
2023-02-27T19:08:55.513Z,57.71
2023-02-27T19:11:34.633Z,57.50
2023-02-27T19:14:07.341Z,57.85
2023-02-27T19:16:35.348Z,58.33
2023-02-27T19:19:07.572Z,58.38
2023-02-27T19:21:35.129Z,58.42
2023-02-27T19:24:02.510Z,57.72
2023-02-27T19:26:32.371Z,57.77
2023-02-27T19:28:59.166Z,57.86
2023-02-27T19:31:26.536Z,58.44
2023-02-27T19:33:53.422Z,58.20
2023-02-27T19:36:21.930Z,58.11
2023-02-27T19:38:50.680Z,58.22
2023-02-27T19:41:18.325Z,58.93
2023-02-27T19:43:47.077Z,58.84
2023-02-27T19:46:18.483Z,58.60
2023-02-27T19:48:46.065Z,58.48
2023-02-27T19:51:15.489Z,58.84
2023-02-27T19:53:45.401Z,58.63
2023-02-27T19:56:17.574Z,58.94
2023-02-27T19:58:45.087Z,59.21
2023-02-27T20:01:12.439Z,59.07
2023-02-27T20:03:43.825Z,58.29
2023-02-27T20:06:24.845Z,58.31
2023-02-27T20:08:52.933Z,58.54
2023-02-27T20:11:21.613Z,58.15
2023-02-27T20:13:50.420Z,58.58
2023-02-27T20:16:22.298Z,58.61
2023-02-27T20:18:50.037Z,58.69
2023-02-27T20:21:23.237Z,58.47
2023-02-27T20:23:51.684Z,58.39
2023-02-27T20:26:22.466Z,58.79
2023-02-27T20:28:52.160Z,58.10
2023-02-27T20:31:23.115Z,58.35
2023-02-27T20:33:50.562Z,58.60
2023-02-27T20:36:18.265Z,58.81
2023-02-27T20:38:45.546Z,59.39
2023-02-27T20:41:16.387Z,59.09
2023-02-27T20:43:44.602Z,59.97
2023-02-27T20:46:16.021Z,60.00
2023-02-27T20:48:43.715Z,59.54
2023-02-27T20:51:18.306Z,59.70
2023-02-27T20:53:48.016Z,60.25
2023-02-27T20:56:18.181Z,59.65
2023-02-27T20:58:45.015Z,59.93
2023-02-27T21:01:13.907Z,59.95
2023-02-27T21:03:43.039Z,60.25
2023-02-27T21:06:13.433Z,60.39
2023-02-27T21:08:44.907Z,60.25
2023-02-27T21:11:19.523Z,59.76
2023-02-27T21:13:47.185Z,60.43
2023-02-27T21:16:17.044Z,60.00
2023-02-27T21:18:45.449Z,60.16
2023-02-27T21:21:17.062Z,60.30
2023-02-27T21:23:43.908Z,60.20
2023-02-27T21:26:17.257Z,60.36
2023-02-27T21:28:47.898Z,61.15
2023-02-27T21:31:17.461Z,60.83
2023-02-27T21:33:44.890Z,60.63
2023-02-27T21:36:12.222Z,61.47
2023-02-27T21:38:39.906Z,61.37
2023-02-27T21:41:12.633Z,61.96
2023-02-27T21:43:40.494Z,61.19
2023-02-27T21:46:10.660Z,61.41
2023-02-27T21:48:38.554Z,61.59
2023-02-27T21:51:06.820Z,60.65
2023-02-27T21:53:36.524Z,61.18
2023-02-27T21:56:09.562Z,61.32
2023-02-27T21:58:37.684Z,61.43
2023-02-27T22:01:15.935Z,60.89
2023-02-27T22:03:44.880Z,61.47
2023-02-27T22:06:13.588Z,61.44
2023-02-27T22:08:41.603Z,61.88
2023-02-27T22:11:09.272Z,63.17
2023-02-27T22:13:37.084Z,63.01
2023-02-27T22:16:10.616Z,63.75
2023-02-27T22:18:39.202Z,63.59
2023-02-27T22:21:18.724Z,63.05
2023-02-27T22:23:47.030Z,62.80
2023-02-27T22:26:21.393Z,62.56
2023-02-27T22:28:48.372Z,63.01
2023-02-27T22:31:24.716Z,62.43
2023-02-27T22:33:54.890Z,62.30
2023-02-27T22:36:24.855Z,63.22
2023-02-27T22:38:55.138Z,63.48
2023-02-27T22:41:26.407Z,63.34
2023-02-27T22:43:53.811Z,63.84
2023-02-27T22:46:36.961Z,64.04
2023-02-27T22:49:11.724Z,63.48
2023-02-27T22:51:38.545Z,63.42
2023-02-27T22:54:07.311Z,62.72
2023-02-27T22:56:39.134Z,63.37
2023-02-27T22:59:06.382Z,62.95
2023-02-27T23:01:35.528Z,63.55
2023-02-27T23:04:08.237Z,63.29
2023-02-27T23:06:39.085Z,62.95
2023-02-27T23:09:13.128Z,62.72
2023-02-27T23:11:40.470Z,62.62
2023-02-27T23:14:07.190Z,63.05
2023-02-27T23:16:34.106Z,63.44
2023-02-27T23:19:01.604Z,63.66
2023-02-27T23:21:37.094Z,63.01
2023-02-27T23:24:10.289Z,63.68
2023-02-27T23:26:47.483Z,63.48
2023-02-27T23:29:14.928Z,63.77
2023-02-27T23:31:42.433Z,63.42
2023-02-27T23:34:10.137Z,63.51
2023-02-27T23:36:39.095Z,63.91
2023-02-27T23:39:07.846Z,64.36
2023-02-27T23:41:35.082Z,64.43
2023-02-27T23:44:02.233Z,64.02
2023-02-27T23:46:30.579Z,64.49
2023-02-27T23:49:01.933Z,64.09
2023-02-27T23:51:30.755Z,64.37
2023-02-27T23:53:58.285Z,64.96
2023-02-27T23:56:28.603Z,64.44
2023-02-27T23:59:06.601Z,64.72
